createdAt,value
2019-03-15T00:02:21.940Z,3.82
2019-03-15T00:04:52.168Z,3.76
2019-03-15T00:07:22.381Z,3.80
2019-03-15T00:09:52.697Z,3.85
2019-03-15T00:12:23.231Z,3.88
2019-03-15T00:14:53.533Z,3.83
2019-03-15T00:17:24.100Z,3.70
2019-03-15T00:19:56.011Z,3.83
2019-03-15T00:22:26.669Z,3.82
2019-03-15T00:24:57.297Z,3.86
2019-03-15T00:27:27.597Z,3.82
2019-03-15T00:29:58.168Z,3.84
2019-03-15T00:32:28.840Z,3.91
2019-03-15T00:34:59.465Z,3.92
2019-03-15T00:37:30.732Z,3.90
2019-03-15T00:40:01.062Z,3.89
2019-03-15T00:42:32.338Z,3.80
2019-03-15T00:45:02.956Z,3.84
2019-03-15T00:47:33.229Z,3.80
2019-03-15T00:50:06.026Z,3.87
2019-03-15T00:52:36.325Z,3.83
2019-03-15T00:55:08.200Z,3.81
2019-03-15T00:57:38.537Z,3.78
2019-03-15T01:00:16.087Z,3.81
2019-03-15T01:02:46.864Z,3.77
2019-03-15T01:05:17.212Z,3.80
2019-03-15T01:07:47.786Z,3.85
2019-03-15T01:10:18.436Z,3.99
2019-03-15T01:12:48.717Z,3.93
2019-03-15T01:15:19.025Z,4.01
2019-03-15T01:17:49.612Z,4.00
2019-03-15T01:20:19.882Z,4.09
2019-03-15T01:22:50.500Z,4.18
2019-03-15T01:25:21.135Z,4.18
2019-03-15T01:27:51.787Z,4.22
2019-03-15T01:30:22.072Z,4.25
2019-03-15T01:32:52.286Z,4.26
2019-03-15T01:35:22.839Z,4.27
2019-03-15T01:37:53.118Z,4.32
2019-03-15T01:40:23.329Z,4.24
2019-03-15T01:42:53.558Z,4.24
2019-03-15T01:45:23.768Z,4.25
2019-03-15T01:47:53.988Z,4.21
2019-03-15T01:50:24.495Z,4.16
2019-03-15T01:52:54.991Z,4.24
2019-03-15T01:55:25.225Z,4.27
2019-03-15T01:57:55.479Z,4.28
2019-03-15T02:00:25.706Z,4.21
2019-03-15T02:02:56.802Z,4.13
2019-03-15T02:05:27.012Z,4.19
2019-03-15T02:07:57.316Z,4.23
2019-03-15T02:10:27.551Z,4.13
2019-03-15T02:12:57.767Z,4.16
2019-03-15T02:15:28.076Z,4.07
2019-03-15T02:17:58.240Z,4.04
2019-03-15T02:20:28.799Z,4.06
2019-03-15T02:22:59.094Z,4.04
2019-03-15T02:25:29.307Z,4.00
2019-03-15T02:27:59.619Z,3.94
2019-03-15T02:30:29.823Z,3.97
2019-03-15T02:33:00.445Z,3.87
2019-03-15T02:35:30.750Z,3.88
2019-03-15T02:38:00.950Z,3.88
2019-03-15T02:40:31.160Z,3.87
2019-03-15T02:43:01.720Z,3.86
2019-03-15T02:45:33.379Z,3.88
2019-03-15T02:48:03.931Z,3.89
2019-03-15T02:50:34.230Z,3.90
2019-03-15T02:53:04.808Z,3.83
2019-03-15T02:55:35.452Z,3.83
2019-03-15T02:58:05.747Z,3.88
2019-03-15T03:00:35.973Z,3.89
2019-03-15T03:03:06.181Z,3.80
2019-03-15T03:05:36.410Z,3.80
2019-03-15T03:08:07.934Z,3.75
2019-03-15T03:10:38.609Z,3.84
2019-03-15T03:13:10.666Z,3.83
2019-03-15T03:15:41.227Z,3.75
2019-03-15T03:18:11.798Z,3.83
2019-03-15T03:20:42.510Z,3.77
2019-03-15T03:23:12.786Z,3.76
2019-03-15T03:25:44.396Z,3.70
2019-03-15T03:28:15.338Z,3.66
2019-03-15T03:30:46.817Z,3.68
2019-03-15T03:33:17.697Z,3.66
2019-03-15T03:35:47.937Z,3.70
2019-03-15T03:38:18.228Z,3.74
2019-03-15T03:40:48.406Z,3.63
2019-03-15T03:43:18.635Z,3.60
2019-03-15T03:45:49.192Z,3.65
2019-03-15T03:48:19.491Z,3.67
2019-03-15T03:50:49.697Z,3.72
2019-03-15T03:53:20.292Z,3.67
2019-03-15T03:55:51.603Z,3.66
2019-03-15T03:58:21.965Z,3.73
2019-03-15T04:00:52.580Z,3.78
2019-03-15T04:03:22.999Z,3.81
2019-03-15T04:05:53.650Z,3.80
2019-03-15T04:08:24.115Z,3.78
2019-03-15T04:10:54.274Z,3.80
2019-03-15T04:13:24.480Z,3.82
2019-03-15T04:15:55.040Z,3.85
2019-03-15T04:18:25.665Z,3.85
2019-03-15T04:20:56.345Z,3.83
2019-03-15T04:23:26.989Z,3.79
2019-03-15T04:25:59.294Z,3.87
2019-03-15T04:28:30.020Z,3.77
2019-03-15T04:31:00.314Z,3.89
2019-03-15T04:33:30.531Z,3.82
2019-03-15T04:36:00.765Z,3.82
2019-03-15T04:38:30.975Z,3.80
2019-03-15T04:41:01.552Z,3.83
2019-03-15T04:43:31.831Z,3.87
2019-03-15T04:46:02.077Z,3.83
2019-03-15T04:48:32.319Z,3.83
2019-03-15T04:51:02.609Z,3.88
2019-03-15T04:53:32.809Z,3.84
2019-03-15T04:56:03.026Z,3.90
2019-03-15T04:58:33.243Z,3.87
2019-03-15T05:01:03.802Z,3.89
2019-03-15T05:03:34.450Z,3.95
2019-03-15T05:06:04.758Z,3.90
2019-03-15T05:08:34.970Z,3.97
2019-03-15T05:11:05.555Z,3.98
2019-03-15T05:13:35.844Z,3.87
2019-03-15T05:16:06.058Z,3.94
2019-03-15T05:18:36.684Z,3.87
2019-03-15T05:21:06.971Z,3.93
2019-03-15T05:23:37.569Z,3.86
2019-03-15T05:26:08.197Z,3.88
2019-03-15T05:28:38.486Z,3.78
2019-03-15T05:31:09.066Z,3.78
2019-03-15T05:33:39.816Z,3.81
2019-03-15T05:36:10.083Z,3.80
2019-03-15T05:38:40.328Z,3.79
2019-03-15T05:41:10.947Z,3.84
2019-03-15T05:43:41.708Z,3.88
2019-03-15T05:46:12.238Z,3.90
2019-03-15T05:48:43.805Z,3.91
2019-03-15T05:51:14.363Z,4.00
2019-03-15T05:53:46.606Z,3.93
2019-03-15T05:56:16.924Z,3.98
2019-03-15T05:58:47.458Z,3.97
2019-03-15T06:01:18.110Z,4.05
2019-03-15T06:03:49.383Z,4.02
2019-03-15T06:06:20.398Z,4.01
2019-03-15T06:08:50.689Z,4.07
2019-03-15T06:11:21.137Z,4.06
2019-03-15T06:13:51.346Z,4.13
2019-03-15T06:16:21.914Z,4.13
2019-03-15T06:18:52.231Z,4.15
2019-03-15T06:21:22.836Z,4.14
2019-03-15T06:23:53.468Z,4.11
2019-03-15T06:26:24.126Z,4.18
2019-03-15T06:28:54.426Z,4.21
2019-03-15T06:31:25.010Z,4.25
2019-03-15T06:33:55.627Z,4.27
2019-03-15T06:36:26.275Z,4.37
2019-03-15T06:38:56.650Z,4.43
2019-03-15T06:41:28.205Z,4.52
2019-03-15T06:43:58.908Z,4.52
2019-03-15T06:46:29.455Z,4.60
2019-03-15T06:48:59.752Z,4.66
2019-03-15T06:51:30.315Z,4.76
2019-03-15T06:54:10.985Z,4.81
2019-03-15T06:56:33.932Z,4.87
2019-03-15T06:59:04.589Z,4.95
2019-03-15T07:01:34.887Z,5.00
2019-03-15T07:04:05.483Z,5.13
2019-03-15T07:06:35.760Z,5.14
2019-03-15T07:09:07.610Z,5.16
2019-03-15T07:11:37.826Z,5.10
2019-03-15T07:14:08.418Z,5.07
2019-03-15T07:16:38.667Z,5.15
2019-03-15T07:19:08.876Z,5.20
2019-03-15T07:21:41.027Z,5.30
2019-03-15T07:24:24.166Z,5.32
2019-03-15T07:26:43.991Z,5.47
2019-03-15T07:29:14.519Z,5.51
2019-03-15T07:31:44.796Z,5.61
2019-03-15T07:34:15.742Z,5.69
2019-03-15T07:36:46.044Z,5.79
2019-03-15T07:39:16.324Z,5.89
2019-03-15T07:41:46.878Z,6.04
2019-03-15T07:44:17.530Z,6.11
2019-03-15T07:46:50.942Z,6.22
2019-03-15T07:49:20.235Z,6.29
2019-03-15T07:51:50.441Z,6.46
2019-03-15T07:54:20.646Z,6.70
2019-03-15T07:56:51.223Z,7.02
2019-03-15T07:59:22.783Z,7.14
2019-03-15T08:01:53.639Z,7.22
2019-03-15T08:04:24.285Z,7.22
2019-03-15T08:06:54.555Z,7.18
2019-03-15T08:09:24.844Z,7.12
2019-03-15T08:11:55.024Z,7.01
2019-03-15T08:14:25.256Z,6.86
2019-03-15T08:16:55.507Z,6.77
2019-03-15T08:19:25.725Z,6.70
2019-03-15T08:21:57.475Z,6.68
2019-03-15T08:24:28.362Z,6.67
2019-03-15T08:26:59.081Z,6.66
2019-03-15T08:29:29.373Z,6.77
2019-03-15T08:31:59.669Z,6.85
2019-03-15T08:34:31.233Z,6.90
2019-03-15T08:37:01.512Z,6.89
2019-03-15T08:39:31.803Z,6.86
2019-03-15T08:42:02.373Z,6.84
2019-03-15T08:44:32.644Z,6.79
2019-03-15T08:47:03.328Z,6.77
2019-03-15T08:49:34.178Z,6.69
2019-03-15T08:52:04.496Z,6.64
2019-03-15T08:54:35.293Z,6.65
2019-03-15T08:57:05.931Z,6.69
2019-03-15T08:59:36.681Z,6.75
2019-03-15T09:02:06.966Z,6.73
2019-03-15T09:04:37.294Z,6.85
2019-03-15T09:07:07.838Z,6.79
2019-03-15T09:09:38.567Z,6.81
2019-03-15T09:12:08.874Z,6.80
2019-03-15T09:14:39.458Z,6.83
2019-03-15T09:17:09.768Z,6.79
2019-03-15T09:19:40.326Z,6.75
2019-03-15T09:22:10.968Z,6.78
2019-03-15T09:24:42.790Z,6.89
2019-03-15T09:27:13.071Z,6.90
2019-03-15T09:29:43.631Z,7.09
2019-03-15T09:32:14.275Z,7.24
2019-03-15T09:34:44.973Z,7.63
2019-03-15T09:37:15.350Z,8.04
2019-03-15T09:39:45.940Z,8.31
2019-03-15T09:42:16.562Z,8.53
2019-03-15T09:44:47.213Z,8.62
2019-03-15T09:47:17.839Z,8.50
2019-03-15T09:49:48.139Z,8.43
2019-03-15T09:52:18.386Z,8.51
2019-03-15T09:54:48.597Z,8.67
2019-03-15T09:57:19.168Z,8.72
2019-03-15T09:59:49.478Z,8.49
2019-03-15T10:02:29.642Z,8.22
2019-03-15T10:04:51.607Z,8.08
2019-03-15T10:07:22.022Z,7.89
2019-03-15T10:09:52.572Z,7.90
2019-03-15T10:12:23.285Z,7.86
2019-03-15T10:14:53.497Z,8.04
2019-03-15T10:17:24.078Z,8.15
2019-03-15T10:19:54.699Z,8.23
2019-03-15T10:22:25.360Z,8.27
2019-03-15T10:24:55.715Z,8.41
2019-03-15T10:27:26.287Z,8.70
2019-03-15T10:29:56.572Z,9.01
2019-03-15T10:32:26.798Z,9.28
2019-03-15T10:34:57.995Z,9.26
2019-03-15T10:37:28.607Z,9.33
2019-03-15T10:39:59.261Z,9.55
2019-03-15T10:42:29.608Z,9.81
2019-03-15T10:45:00.431Z,9.83
2019-03-15T10:47:30.986Z,9.64
2019-03-15T10:50:02.973Z,9.49
2019-03-15T10:52:33.223Z,9.36
2019-03-15T10:55:05.081Z,9.34
2019-03-15T10:57:35.593Z,9.38
2019-03-15T11:00:11.581Z,9.44
2019-03-15T11:02:41.790Z,9.46
2019-03-15T11:05:12.245Z,9.59
2019-03-15T11:07:42.473Z,9.65
2019-03-15T11:10:13.933Z,9.59
2019-03-15T11:12:45.415Z,9.63
2019-03-15T11:15:17.033Z,9.74
2019-03-15T11:17:47.346Z,10.11
2019-03-15T11:20:18.016Z,10.54
2019-03-15T11:22:48.646Z,11.08
2019-03-15T11:25:19.276Z,11.56
2019-03-15T11:27:49.908Z,11.92
2019-03-15T11:30:20.188Z,12.19
2019-03-15T11:32:50.498Z,12.09
2019-03-15T11:35:21.729Z,11.81
2019-03-15T11:37:52.611Z,11.41
2019-03-15T11:40:22.897Z,10.98
2019-03-15T11:42:53.132Z,10.56
2019-03-15T11:45:23.743Z,10.11
2019-03-15T11:48:03.402Z,9.56
2019-03-15T11:50:26.006Z,9.22
2019-03-15T11:52:56.215Z,9.13
2019-03-15T11:55:26.464Z,9.49
2019-03-15T11:57:57.071Z,10.13
2019-03-15T12:00:27.374Z,10.63
2019-03-15T12:02:57.618Z,11.07
2019-03-15T12:05:28.193Z,11.55
2019-03-15T12:07:58.927Z,11.67
2019-03-15T12:10:29.579Z,11.43
2019-03-15T12:12:59.865Z,11.22
2019-03-15T12:15:30.535Z,10.91
2019-03-15T12:18:01.151Z,10.63
2019-03-15T12:20:31.424Z,10.51
2019-03-15T12:23:01.672Z,10.56
2019-03-15T12:25:31.857Z,10.57
2019-03-15T12:28:02.513Z,10.71
2019-03-15T12:30:32.830Z,10.85
2019-03-15T12:33:03.078Z,10.83
2019-03-15T12:35:33.647Z,11.08
2019-03-15T12:38:03.996Z,11.08
2019-03-15T12:40:34.219Z,10.79
2019-03-15T12:43:04.495Z,10.60
2019-03-15T12:45:34.735Z,10.46
2019-03-15T12:48:04.949Z,10.31
2019-03-15T12:50:35.183Z,10.19
2019-03-15T12:53:05.742Z,10.06
2019-03-15T12:55:37.059Z,9.99
2019-03-15T12:58:07.747Z,9.99
2019-03-15T13:00:38.251Z,10.06
2019-03-15T13:03:08.844Z,10.16
2019-03-15T13:05:39.127Z,10.39
2019-03-15T13:08:09.923Z,10.58
2019-03-15T13:10:40.233Z,10.72
2019-03-15T13:13:10.448Z,10.61
2019-03-15T13:15:40.682Z,10.47
2019-03-15T13:18:10.920Z,10.46
2019-03-15T13:20:41.502Z,10.26
2019-03-15T13:23:12.137Z,10.10
2019-03-15T13:25:44.556Z,9.96
2019-03-15T13:28:14.833Z,9.78
2019-03-15T13:30:46.067Z,9.44
2019-03-15T13:33:20.730Z,9.13
2019-03-15T13:35:50.063Z,9.00
2019-03-15T13:38:20.334Z,8.67
2019-03-15T13:40:50.930Z,8.68
2019-03-15T13:43:21.518Z,8.95
2019-03-15T13:45:51.823Z,9.27
2019-03-15T13:48:22.073Z,9.36
2019-03-15T13:50:52.623Z,9.27
2019-03-15T13:53:22.895Z,9.24
2019-03-15T13:55:53.530Z,9.26
2019-03-15T13:58:24.993Z,9.47
2019-03-15T14:00:55.212Z,9.59
2019-03-15T14:03:25.442Z,9.48
2019-03-15T14:05:55.693Z,9.42
2019-03-15T14:08:26.314Z,9.43
2019-03-15T14:10:56.948Z,9.26
2019-03-15T14:13:27.222Z,9.08
2019-03-15T14:15:57.423Z,8.92
2019-03-15T14:18:29.366Z,8.83
2019-03-15T14:21:00.101Z,8.64
2019-03-15T14:23:30.419Z,8.57
2019-03-15T14:26:03.625Z,8.48
2019-03-15T14:28:33.980Z,8.40
2019-03-15T14:31:04.609Z,8.39
2019-03-15T14:33:37.002Z,8.30
2019-03-15T14:36:07.598Z,8.39
2019-03-15T14:38:38.535Z,8.45
2019-03-15T14:41:09.233Z,8.36
2019-03-15T14:43:39.627Z,8.37
2019-03-15T14:46:12.213Z,8.37
2019-03-15T14:48:45.749Z,8.46
2019-03-15T14:51:16.037Z,8.47
2019-03-15T14:53:46.593Z,8.44
2019-03-15T14:56:17.227Z,8.42
2019-03-15T14:58:47.604Z,8.32
2019-03-15T15:01:17.808Z,8.11
2019-03-15T15:03:48.365Z,8.04
2019-03-15T15:06:19.414Z,7.92
2019-03-15T15:08:50.036Z,7.83
2019-03-15T15:11:20.691Z,7.73
2019-03-15T15:13:51.321Z,7.63
2019-03-15T15:16:21.598Z,7.59
2019-03-15T15:18:52.193Z,7.60
2019-03-15T15:21:22.843Z,7.54
2019-03-15T15:23:53.513Z,7.61
2019-03-15T15:26:24.246Z,7.71
2019-03-15T15:28:54.852Z,7.68
2019-03-15T15:31:25.488Z,7.64
2019-03-15T15:33:57.811Z,7.62
2019-03-15T15:36:28.104Z,7.57
2019-03-15T15:38:58.781Z,7.57
2019-03-15T15:41:29.460Z,7.52
2019-03-15T15:43:59.754Z,7.57
2019-03-15T15:46:30.403Z,7.43
2019-03-15T15:49:01.053Z,7.25
2019-03-15T15:51:31.347Z,7.17
2019-03-15T15:54:01.641Z,7.12
2019-03-15T15:56:32.174Z,7.06
2019-03-15T15:59:03.307Z,7.01
2019-03-15T16:01:34.220Z,7.00
2019-03-15T16:04:05.002Z,6.93
2019-03-15T16:06:35.698Z,6.95
2019-03-15T16:09:07.715Z,6.96
2019-03-15T16:11:38.396Z,6.91
2019-03-15T16:14:09.076Z,6.85
2019-03-15T16:16:39.763Z,6.81
2019-03-15T16:19:10.028Z,6.75
2019-03-15T16:21:40.602Z,6.72
2019-03-15T16:24:11.289Z,6.60
2019-03-15T16:26:41.551Z,6.53
2019-03-15T16:29:11.768Z,6.47
2019-03-15T16:31:42.004Z,6.37
2019-03-15T16:34:12.563Z,6.32
2019-03-15T16:36:43.844Z,6.29
2019-03-15T16:39:14.423Z,6.26
2019-03-15T16:41:45.152Z,6.21
2019-03-15T16:44:15.794Z,6.12
2019-03-15T16:46:46.439Z,6.10
2019-03-15T16:49:17.063Z,5.98
2019-03-15T16:51:47.335Z,5.95
2019-03-15T16:54:17.946Z,5.86
2019-03-15T16:56:48.392Z,5.84
2019-03-15T16:59:18.595Z,5.74
2019-03-15T17:01:48.866Z,5.67
2019-03-15T17:04:19.077Z,5.65
2019-03-15T17:06:49.673Z,5.67
2019-03-15T17:09:20.290Z,5.56
2019-03-15T17:11:50.954Z,5.58
2019-03-15T17:14:25.752Z,5.49
2019-03-15T17:16:54.183Z,5.45
2019-03-15T17:19:26.206Z,5.34
2019-03-15T17:21:56.464Z,5.27
2019-03-15T17:24:27.012Z,5.21
2019-03-15T17:26:57.732Z,5.05
2019-03-15T17:29:28.374Z,5.00
2019-03-15T17:31:58.743Z,4.94
2019-03-15T17:34:29.325Z,4.85
2019-03-15T17:37:06.663Z,4.76
2019-03-15T17:39:32.185Z,4.71
2019-03-15T17:42:02.378Z,4.65
2019-03-15T17:44:32.625Z,4.59
2019-03-15T17:47:02.854Z,4.58
2019-03-15T17:49:37.044Z,4.56
2019-03-15T17:52:07.679Z,4.53
2019-03-15T17:54:38.367Z,4.50
2019-03-15T17:57:08.652Z,4.48
2019-03-15T17:59:39.198Z,4.49
2019-03-15T18:02:10.014Z,4.49
2019-03-15T18:04:40.716Z,4.53
2019-03-15T18:07:11.345Z,4.55
2019-03-15T18:09:41.640Z,4.56
2019-03-15T18:12:12.180Z,4.53
2019-03-15T18:14:43.157Z,4.57
2019-03-15T18:17:13.371Z,4.58
2019-03-15T18:19:43.623Z,4.64
2019-03-15T18:22:14.179Z,4.61
2019-03-15T18:24:44.851Z,4.61
2019-03-15T18:27:15.058Z,4.60
2019-03-15T18:29:46.421Z,4.57
2019-03-15T18:32:16.720Z,4.60
2019-03-15T18:34:46.945Z,4.59
2019-03-15T18:37:17.161Z,4.54
2019-03-15T18:39:47.525Z,4.55
2019-03-15T18:42:17.841Z,4.52
2019-03-15T18:44:48.138Z,4.46
2019-03-15T18:47:18.351Z,4.46
2019-03-15T18:49:48.583Z,4.41
2019-03-15T18:52:18.869Z,4.33
2019-03-15T18:54:49.869Z,4.26
2019-03-15T18:57:20.460Z,4.21
2019-03-15T18:59:52.110Z,4.18
2019-03-15T19:02:22.433Z,4.17
2019-03-15T19:04:52.660Z,4.22
2019-03-15T19:07:23.206Z,4.24
2019-03-15T19:09:53.502Z,4.33
2019-03-15T19:12:24.140Z,4.51
2019-03-15T19:14:54.415Z,4.59
2019-03-15T19:17:24.644Z,4.67
2019-03-15T19:19:54.887Z,4.69
2019-03-15T19:22:26.193Z,4.80
2019-03-15T19:24:56.757Z,4.84
2019-03-15T19:27:27.174Z,4.88
2019-03-15T19:29:59.365Z,4.94
2019-03-15T19:32:29.599Z,5.00
2019-03-15T19:34:59.853Z,5.05
2019-03-15T19:37:31.622Z,5.11
2019-03-15T19:40:02.050Z,5.09
2019-03-15T19:42:32.621Z,5.14
2019-03-15T19:45:02.935Z,5.15
2019-03-15T19:47:33.452Z,5.22
2019-03-15T19:50:06.486Z,5.30
2019-03-15T19:52:36.858Z,5.34
2019-03-15T19:55:11.430Z,5.44
2019-03-15T19:57:42.105Z,5.48
2019-03-15T20:00:18.001Z,5.51
2019-03-15T20:02:48.664Z,5.50
2019-03-15T20:05:19.077Z,5.55
2019-03-15T20:07:49.834Z,5.53
2019-03-15T20:10:20.431Z,5.54
2019-03-15T20:12:50.997Z,5.53
2019-03-15T20:15:21.369Z,5.53
2019-03-15T20:17:52.475Z,5.50
2019-03-15T20:20:22.739Z,5.48
2019-03-15T20:22:52.984Z,5.42
2019-03-15T20:25:23.731Z,5.45
2019-03-15T20:27:54.378Z,5.43
2019-03-15T20:30:26.867Z,5.40
2019-03-15T20:32:58.844Z,5.38
2019-03-15T20:35:29.452Z,5.39
2019-03-15T20:38:00.131Z,5.39
2019-03-15T20:40:30.799Z,5.36
2019-03-15T20:43:01.098Z,5.37
2019-03-15T20:45:31.363Z,5.37
2019-03-15T20:48:01.941Z,5.38
2019-03-15T20:50:45.856Z,5.37
2019-03-15T20:53:09.891Z,5.36
2019-03-15T20:55:36.932Z,5.28
2019-03-15T20:58:07.683Z,5.25
2019-03-15T21:00:38.502Z,5.32
2019-03-15T21:03:08.855Z,5.29
2019-03-15T21:05:39.064Z,5.23
2019-03-15T21:08:09.316Z,5.23
2019-03-15T21:10:39.524Z,5.22
2019-03-15T21:13:09.806Z,5.21
2019-03-15T21:15:40.411Z,5.28
2019-03-15T21:18:10.652Z,5.28
2019-03-15T21:20:41.227Z,5.23
2019-03-15T21:23:11.554Z,5.24
2019-03-15T21:25:42.127Z,5.27
2019-03-15T21:28:12.754Z,5.28
2019-03-15T21:30:48.468Z,5.25
2019-03-15T21:33:15.046Z,5.30
2019-03-15T21:35:45.632Z,5.27
2019-03-15T21:38:16.572Z,5.24
2019-03-15T21:40:49.048Z,5.30
2019-03-15T21:43:21.226Z,5.27
2019-03-15T21:45:52.480Z,5.28
2019-03-15T21:48:24.275Z,5.25
2019-03-15T21:50:54.704Z,5.24
2019-03-15T21:53:25.264Z,5.29
2019-03-15T21:55:55.955Z,5.28
2019-03-15T21:58:26.584Z,5.39
2019-03-15T22:01:02.142Z,5.42
2019-03-15T22:03:28.802Z,5.43
2019-03-15T22:05:59.496Z,5.40
2019-03-15T22:08:30.137Z,5.33
2019-03-15T22:11:02.433Z,5.31
2019-03-15T22:13:32.844Z,5.32
2019-03-15T22:16:03.067Z,5.37
2019-03-15T22:18:35.240Z,5.42
2019-03-15T22:21:05.611Z,5.56
2019-03-15T22:23:35.818Z,5.52
2019-03-15T22:26:06.410Z,5.47
2019-03-15T22:28:36.715Z,5.50
2019-03-15T22:31:16.512Z,5.53
2019-03-15T22:33:39.431Z,5.59
2019-03-15T22:36:10.065Z,5.68
2019-03-15T22:38:40.714Z,5.71
2019-03-15T22:41:11.426Z,5.61
2019-03-15T22:43:41.732Z,5.60
2019-03-15T22:46:11.963Z,5.65
2019-03-15T22:48:42.166Z,5.61
2019-03-15T22:51:12.826Z,5.65
2019-03-15T22:53:43.480Z,5.67
2019-03-15T22:56:14.170Z,5.68
2019-03-15T22:58:44.802Z,5.80
2019-03-15T23:01:29.169Z,5.81
2019-03-15T23:03:47.860Z,5.75
2019-03-15T23:06:18.174Z,5.77
2019-03-15T23:08:48.355Z,5.74
2019-03-15T23:11:18.954Z,5.74
2019-03-15T23:13:49.345Z,5.74
2019-03-15T23:16:19.564Z,5.76
2019-03-15T23:18:49.771Z,5.79
2019-03-15T23:21:20.413Z,5.79
2019-03-15T23:23:51.117Z,5.79
2019-03-15T23:26:21.428Z,5.72
2019-03-15T23:28:51.630Z,5.73
2019-03-15T23:31:22.255Z,5.67
2019-03-15T23:33:52.899Z,5.45
2019-03-15T23:36:23.187Z,5.28
2019-03-15T23:38:53.419Z,5.04
2019-03-15T23:41:23.974Z,5.00
2019-03-15T23:43:54.603Z,4.90
2019-03-15T23:46:25.234Z,4.74
2019-03-15T23:48:55.496Z,4.68
2019-03-15T23:51:25.756Z,4.58
2019-03-15T23:53:57.925Z,4.51
2019-03-15T23:56:28.656Z,4.45
2019-03-15T23:58:59.763Z,4.47
